Time;durP1;ratioP1;P1;durP2;ratioP2;P2;SDS_P1;SDS_P2;PMS_P1;PMS_P2;Temp;Humidity;BMP_temperature;BMP_pressure;BME280_temperature;BME280_humidity;BME280_pressure;Samples;Min_cycle;Max_cycle;Signal;HPM_P1;HPM_P2
2023/08/23 00:00:12;;;;;;;6.15;4.22;;;;;;;;;;5034955;28;20542;-62
2023/08/23 00:02:38;;;;;;;7.15;4.20;;;;;;;;;;5018535;28;20060;-62
2023/08/23 00:05:03;;;;;;;7.32;4.65;;;;;;;;;;5018861;28;20472;-62
2023/08/23 00:07:29;;;;;;;5.78;3.80;;;;;;;;;;5018770;28;20049;-62
2023/08/23 00:09:54;;;;;;;4.85;3.80;;;;;;;;;;5018629;28;20075;-62
2023/08/23 00:12:20;;;;;;;6.60;4.00;;;;;;;;;;5018323;28;20037;-62
2023/08/23 00:14:45;;;;;;;4.88;3.72;;;;;;;;;;5018665;28;20021;-62
2023/08/23 00:17:11;;;;;;;6.78;3.85;;;;;;;;;;5018583;28;20025;-62
2023/08/23 00:19:36;;;;;;;6.18;3.92;;;;;;;;;;5018433;28;20052;-62
2023/08/23 00:22:05;;;;;;;5.15;3.53;;;;;;;;;;5018096;28;20394;-62
2023/08/23 00:24:30;;;;;;;6.07;3.70;;;;;;;;;;5034793;28;20028;-62
2023/08/23 00:26:56;;;;;;;5.60;3.88;;;;;;;;;;5018375;28;20388;-63
2023/08/23 00:29:22;;;;;;;5.78;3.85;;;;;;;;;;5018330;28;20105;-62
2023/08/23 00:31:47;;;;;;;6.70;3.60;;;;;;;;;;5017894;28;20108;-63
2023/08/23 00:34:13;;;;;;;5.28;3.67;;;;;;;;;;5018257;28;20056;-62
2023/08/23 00:36:38;;;;;;;6.75;3.40;;;;;;;;;;5018172;28;20021;-62
2023/08/23 00:39:04;;;;;;;5.93;3.35;;;;;;;;;;5017942;28;20032;-63
2023/08/23 00:41:29;;;;;;;4.40;3.70;;;;;;;;;;4998102;28;20021;-63
2023/08/23 00:43:55;;;;;;;5.85;3.55;;;;;;;;;;4998139;28;20060;-63
2023/08/23 00:46:21;;;;;;;5.40;3.60;;;;;;;;;;4998303;28;20025;-62
2023/08/23 00:48:47;;;;;;;5.43;3.30;;;;;;;;;;4998874;28;20026;-63
2023/08/23 00:51:13;;;;;;;5.78;3.53;;;;;;;;;;5015528;28;20044;-62
2023/08/23 00:53:39;;;;;;;4.75;3.47;;;;;;;;;;5017910;28;20087;-62
2023/08/23 00:56:05;;;;;;;4.95;3.58;;;;;;;;;;5018078;28;20021;-63
2023/08/23 00:58:31;;;;;;;3.80;3.33;;;;;;;;;;5017817;28;20419;-63
2023/08/23 01:00:57;;;;;;;5.60;3.67;;;;;;;;;;5001157;28;20487;-62
2023/08/23 01:03:22;;;;;;;5.45;3.65;;;;;;;;;;5017250;28;20033;-62
2023/08/23 01:05:48;;;;;;;5.28;3.50;;;;;;;;;;5017833;28;20018;-62
2023/08/23 01:08:13;;;;;;;5.65;3.63;;;;;;;;;;5017361;28;20368;-62
2023/08/23 01:10:44;;;;;;;6.72;3.53;;;;;;;;;;5017091;28;20029;-62
2023/08/23 01:13:20;;;;;;;6.60;3.90;;;;;;;;;;5017091;28;20093;-64
2023/08/23 01:15:45;;;;;;;5.60;3.45;;;;;;;;;;5017423;28;20033;-62
2023/08/23 01:18:11;;;;;;;6.30;4.13;;;;;;;;;;5016632;28;20087;-62
2023/08/23 01:20:37;;;;;;;7.85;3.70;;;;;;;;;;5016993;28;20068;-64
2023/08/23 01:23:13;;;;;;;5.65;3.50;;;;;;;;;;5017010;28;20056;-62
2023/08/23 01:25:42;;;;;;;5.43;3.50;;;;;;;;;;5017468;28;20368;-64
2023/08/23 01:28:08;;;;;;;4.93;3.35;;;;;;;;;;5016969;28;20041;-62
2023/08/23 01:30:34;;;;;;;4.07;3.10;;;;;;;;;;5017042;28;20025;-62
2023/08/23 01:33:14;;;;;;;4.63;3.05;;;;;;;;;;5017127;28;20068;-62
2023/08/23 01:35:46;;;;;;;5.97;3.25;;;;;;;;;;5017403;28;20061;-63
2023/08/23 01:38:11;;;;;;;5.60;3.10;;;;;;;;;;5016883;28;20377;-62
2023/08/23 01:40:37;;;;;;;4.20;3.13;;;;;;;;;;5016872;28;20456;-63
2023/08/23 01:43:03;;;;;;;4.60;2.85;;;;;;;;;;5016768;28;20033;-62
2023/08/23 01:45:29;;;;;;;4.35;3.20;;;;;;;;;;5016931;28;20025;-62
2023/08/23 01:47:54;;;;;;;5.53;3.28;;;;;;;;;;5016564;28;20025;-62
2023/08/23 01:50:20;;;;;;;4.70;3.17;;;;;;;;;;5016877;28;20025;-62
2023/08/23 01:52:45;;;;;;;5.35;2.88;;;;;;;;;;5016789;28;20033;-62
2023/08/23 01:55:11;;;;;;;5.65;3.40;;;;;;;;;;5016720;28;20032;-62
2023/08/23 01:57:36;;;;;;;3.92;3.00;;;;;;;;;;5016767;28;20060;-62
2023/08/23 02:00:03;;;;;;;4.68;3.28;;;;;;;;;;5032387;28;20353;-62
2023/08/23 02:02:28;;;;;;;4.55;3.03;;;;;;;;;;5016541;28;20043;-62
2023/08/23 02:04:54;;;;;;;4.32;2.67;;;;;;;;;;5016664;28;20110;-62
2023/08/23 02:07:19;;;;;;;5.30;3.08;;;;;;;;;;5016467;28;20053;-62
2023/08/23 02:09:45;;;;;;;4.97;3.08;;;;;;;;;;5015839;28;20039;-62
2023/08/23 02:12:10;;;;;;;4.10;3.08;;;;;;;;;;5016154;28;20025;-62
2023/08/23 02:14:36;;;;;;;4.32;3.15;;;;;;;;;;5016472;28;20479;-62
2023/08/23 02:17:01;;;;;;;5.05;3.40;;;;;;;;;;5016237;28;20029;-63
2023/08/23 02:19:27;;;;;;;4.97;2.88;;;;;;;;;;5016076;28;20033;-62
2023/08/23 02:21:52;;;;;;;5.07;2.90;;;;;;;;;;5016335;28;20021;-62
2023/08/23 02:24:18;;;;;;;4.85;2.95;;;;;;;;;;5015639;28;20105;-62
2023/08/23 02:26:43;;;;;;;5.05;3.15;;;;;;;;;;5015674;28;20357;-62
2023/08/23 02:29:09;;;;;;;4.47;2.85;;;;;;;;;;5016159;28;20078;-62
2023/08/23 02:31:34;;;;;;;4.20;3.08;;;;;;;;;;5016219;28;20372;-63
2023/08/23 02:33:59;;;;;;;4.95;3.05;;;;;;;;;;5015945;28;20021;-62
2023/08/23 02:36:25;;;;;;;3.80;2.78;;;;;;;;;;5015574;28;20468;-62
2023/08/23 02:38:50;;;;;;;4.00;2.85;;;;;;;;;;5015956;28;20021;-62
2023/08/23 02:41:16;;;;;;;4.10;3.13;;;;;;;;;;5016105;28;20423;-62
2023/08/23 02:43:42;;;;;;;5.75;3.10;;;;;;;;;;5014779;28;20033;-62
2023/08/23 02:46:07;;;;;;;3.30;2.72;;;;;;;;;;5015411;28;20021;-62
2023/08/23 02:48:33;;;;;;;3.45;2.65;;;;;;;;;;5016045;28;20113;-62
2023/08/23 02:50:59;;;;;;;4.25;2.70;;;;;;;;;;5015975;28;20025;-63
2023/08/23 02:53:26;;;;;;;4.45;2.92;;;;;;;;;;5032547;28;20022;-62
2023/08/23 02:55:51;;;;;;;4.10;2.70;;;;;;;;;;5016009;28;20041;-62
2023/08/23 02:58:17;;;;;;;4.30;2.90;;;;;;;;;;5015965;28;20026;-62
2023/08/23 03:00:42;;;;;;;4.03;2.78;;;;;;;;;;5015944;28;20026;-62
2023/08/23 03:03:08;;;;;;;3.30;2.50;;;;;;;;;;5015168;28;20044;-62
2023/08/23 03:05:33;;;;;;;3.63;2.50;;;;;;;;;;5015374;28;20448;-62
2023/08/23 03:07:59;;;;;;;4.75;2.70;;;;;;;;;;5015828;28;20021;-63
2023/08/23 03:10:24;;;;;;;3.60;2.70;;;;;;;;;;5015816;28;20025;-62
2023/08/23 03:12:50;;;;;;;3.35;2.72;;;;;;;;;;5015451;28;20155;-62
2023/08/23 03:15:15;;;;;;;3.03;2.28;;;;;;;;;;5015179;28;20040;-62
2023/08/23 03:17:41;;;;;;;5.05;2.53;;;;;;;;;;5032686;28;20108;-62
2023/08/23 03:20:06;;;;;;;2.90;2.40;;;;;;;;;;5015770;28;20452;-62
2023/08/23 03:22:32;;;;;;;3.17;2.30;;;;;;;;;;5015669;28;20064;-64
2023/08/23 03:24:57;;;;;;;3.83;2.38;;;;;;;;;;5015357;28;20037;-63
2023/08/23 03:27:24;;;;;;;3.92;2.35;;;;;;;;;;5031423;28;20075;-62
2023/08/23 03:29:50;;;;;;;3.38;2.47;;;;;;;;;;5015931;28;20025;-62
2023/08/23 03:32:16;;;;;;;2.90;2.60;;;;;;;;;;5032841;28;20337;-62
2023/08/23 03:34:41;;;;;;;5.03;2.40;;;;;;;;;;5015491;28;20022;-62
2023/08/23 03:37:07;;;;;;;2.78;2.15;;;;;;;;;;5015357;28;20056;-63
2023/08/23 03:39:32;;;;;;;3.75;2.33;;;;;;;;;;5015498;28;20476;-62
2023/08/23 03:41:58;;;;;;;3.42;2.30;;;;;;;;;;5015579;28;20022;-62
2023/08/23 03:44:23;;;;;;;3.47;2.50;;;;;;;;;;5015116;28;20083;-62
2023/08/23 03:46:49;;;;;;;3.00;2.15;;;;;;;;;;5019104;28;20021;-62
2023/08/23 03:49:14;;;;;;;3.47;2.70;;;;;;;;;;5019036;28;20021;-62
2023/08/23 03:51:40;;;;;;;3.65;2.10;;;;;;;;;;5019018;28;20029;-62
2023/08/23 03:54:05;;;;;;;2.53;1.95;;;;;;;;;;5017938;28;20021;-62
2023/08/23 03:56:31;;;;;;;3.33;2.20;;;;;;;;;;5035383;28;20419;-62
2023/08/23 03:58:58;;;;;;;3.10;2.22;;;;;;;;;;5018907;28;20064;-62
2023/08/23 04:01:23;;;;;;;3.85;2.60;;;;;;;;;;5018839;28;20021;-63
2023/08/23 04:03:49;;;;;;;2.70;2.30;;;;;;;;;;5018113;28;20144;-64
2023/08/23 04:06:14;;;;;;;4.35;2.40;;;;;;;;;;5018495;28;20025;-62
2023/08/23 04:08:40;;;;;;;2.75;2.22;;;;;;;;;;5018674;28;20022;-62
2023/08/23 04:11:05;;;;;;;2.53;2.28;;;;;;;;;;5018715;28;20124;-62
2023/08/23 04:13:31;;;;;;;3.45;2.10;;;;;;;;;;5018648;28;20083;-62
2023/08/23 04:15:56;;;;;;;2.72;1.92;;;;;;;;;;5016346;28;20053;-63
2023/08/23 04:18:22;;;;;;;3.75;2.30;;;;;;;;;;5016373;28;20064;-62
2023/08/23 04:20:57;;;;;;;3.08;2.20;;;;;;;;;;5016646;28;20026;-62
2023/08/23 04:23:22;;;;;;;3.70;2.33;;;;;;;;;;5017636;28;20068;-63
2023/08/23 04:25:48;;;;;;;2.97;2.42;;;;;;;;;;5016928;28;20021;-63
2023/08/23 04:28:13;;;;;;;3.28;2.00;;;;;;;;;;5017479;28;20064;-62
2023/08/23 04:30:42;;;;;;;3.15;2.08;;;;;;;;;;5018075;28;20036;-62
2023/08/23 04:33:07;;;;;;;3.78;1.90;;;;;;;;;;5018742;28;20472;-62
2023/08/23 04:35:33;;;;;;;2.53;2.17;;;;;;;;;;5017751;28;20043;-62
2023/08/23 04:37:58;;;;;;;3.20;1.88;;;;;;;;;;5017951;28;20100;-62
2023/08/23 04:40:24;;;;;;;3.65;2.25;;;;;;;;;;5018140;28;20380;-62
2023/08/23 04:42:49;;;;;;;2.85;2.15;;;;;;;;;;5034903;28;20121;-62
2023/08/23 04:45:15;;;;;;;2.67;2.10;;;;;;;;;;5033948;28;20033;-62
2023/08/23 04:47:41;;;;;;;2.95;2.20;;;;;;;;;;5018030;28;20488;-62
2023/08/23 04:50:06;;;;;;;2.80;2.15;;;;;;;;;;5017982;28;20021;-63
2023/08/23 04:52:32;;;;;;;2.55;2.08;;;;;;;;;;5017667;28;20029;-62
2023/08/23 04:54:57;;;;;;;2.83;2.15;;;;;;;;;;5017883;28;20032;-62
2023/08/23 04:57:23;;;;;;;2.95;2.15;;;;;;;;;;5016894;28;20519;-62
2023/08/23 04:59:48;;;;;;;2.55;1.92;;;;;;;;;;5017689;28;20024;-62
2023/08/23 05:02:14;;;;;;;2.72;2.05;;;;;;;;;;5017299;28;20151;-62
2023/08/23 05:04:39;;;;;;;3.15;2.15;;;;;;;;;;5017746;28;20055;-62
2023/08/23 05:07:05;;;;;;;2.35;1.90;;;;;;;;;;5017654;28;20053;-62
2023/08/23 05:09:30;;;;;;;2.65;2.10;;;;;;;;;;5018236;28;20013;-62
2023/08/23 05:11:56;;;;;;;2.38;1.85;;;;;;;;;;5017863;28;20470;-61
2023/08/23 05:14:21;;;;;;;2.70;2.10;;;;;;;;;;5017246;28;20083;-62
2023/08/23 05:16:47;;;;;;;3.60;1.92;;;;;;;;;;5017468;28;20099;-62
2023/08/23 05:19:12;;;;;;;2.78;2.05;;;;;;;;;;5033445;28;20053;-62
2023/08/23 05:21:39;;;;;;;2.80;2.20;;;;;;;;;;5017292;28;20495;-62
2023/08/23 05:24:04;;;;;;;2.65;2.08;;;;;;;;;;5016685;28;20049;-62
2023/08/23 05:26:30;;;;;;;2.55;1.85;;;;;;;;;;5017333;28;20033;-62
2023/08/23 05:28:55;;;;;;;2.50;2.00;;;;;;;;;;5017215;28;20033;-62
2023/08/23 05:31:21;;;;;;;2.42;2.03;;;;;;;;;;5017228;28;20060;-62
2023/08/23 05:33:46;;;;;;;2.95;2.10;;;;;;;;;;5016912;28;20123;-62
2023/08/23 05:36:11;;;;;;;2.88;2.15;;;;;;;;;;5017123;28;20376;-62
2023/08/23 05:38:37;;;;;;;2.80;1.90;;;;;;;;;;5017904;28;20071;-62
2023/08/23 05:41:02;;;;;;;3.22;2.30;;;;;;;;;;5016018;28;20464;-62
2023/08/23 05:43:28;;;;;;;3.50;2.40;;;;;;;;;;5032865;28;20048;-62
2023/08/23 05:45:56;;;;;;;3.55;2.30;;;;;;;;;;5016914;28;20029;-62
2023/08/23 05:48:22;;;;;;;3.80;2.10;;;;;;;;;;5017448;28;20040;-63
2023/08/23 05:50:48;;;;;;;2.65;1.95;;;;;;;;;;5016829;28;20396;-62
2023/08/23 05:53:19;;;;;;;2.92;2.20;;;;;;;;;;5032647;28;20033;-63
2023/08/23 05:55:50;;;;;;;2.40;2.00;;;;;;;;;;5031866;28;20021;-62
2023/08/23 05:58:17;;;;;;;2.70;2.10;;;;;;;;;;5016055;28;20544;-62
2023/08/23 06:00:43;;;;;;;3.35;2.30;;;;;;;;;;5032396;28;20353;-62
2023/08/23 06:03:09;;;;;;;3.30;2.42;;;;;;;;;;5016055;28;20091;-62
2023/08/23 06:05:34;;;;;;;2.72;2.10;;;;;;;;;;5016754;28;20465;-62
2023/08/23 06:08:02;;;;;;;3.45;2.30;;;;;;;;;;5033039;28;20029;-62
2023/08/23 06:10:27;;;;;;;3.15;2.00;;;;;;;;;;5016560;28;20026;-61
2023/08/23 06:12:53;;;;;;;2.90;2.13;;;;;;;;;;5016120;28;20029;-62
2023/08/23 06:15:18;;;;;;;2.75;2.35;;;;;;;;;;5015854;28;20033;-62
2023/08/23 06:17:44;;;;;;;3.38;2.40;;;;;;;;;;5016482;28;20033;-61
2023/08/23 06:20:09;;;;;;;2.95;2.17;;;;;;;;;;5016417;28;20033;-62
2023/08/23 06:22:36;;;;;;;2.83;2.20;;;;;;;;;;5015935;28;20384;-62
2023/08/23 06:25:01;;;;;;;2.45;2.22;;;;;;;;;;4998964;28;20083;-62
2023/08/23 06:27:26;;;;;;;2.78;2.05;;;;;;;;;;5016296;28;20021;-62
2023/08/23 06:29:52;;;;;;;3.00;2.00;;;;;;;;;;5016249;28;20017;-62
2023/08/23 06:32:19;;;;;;;2.90;1.90;;;;;;;;;;5015586;28;20045;-61
2023/08/23 06:34:45;;;;;;;3.17;2.15;;;;;;;;;;5032003;28;20032;-62
2023/08/23 06:37:11;;;;;;;2.78;2.40;;;;;;;;;;5016210;28;20411;-62
2023/08/23 06:39:36;;;;;;;3.03;2.20;;;;;;;;;;5013266;28;20395;-62
2023/08/23 06:42:02;;;;;;;3.50;2.50;;;;;;;;;;5015772;28;20013;-62
2023/08/23 06:44:27;;;;;;;2.65;2.00;;;;;;;;;;5014937;28;20127;-61
2023/08/23 06:46:53;;;;;;;3.25;2.20;;;;;;;;;;5014011;28;20022;-62
2023/08/23 06:49:18;;;;;;;3.33;1.90;;;;;;;;;;5030992;28;20040;-61
2023/08/23 06:51:44;;;;;;;2.30;2.10;;;;;;;;;;5015796;28;20033;-61
2023/08/23 06:54:09;;;;;;;3.17;2.20;;;;;;;;;;5015973;28;20033;-62
2023/08/23 06:56:35;;;;;;;2.80;2.22;;;;;;;;;;5015982;28;20022;-62
2023/08/23 06:59:00;;;;;;;2.58;2.10;;;;;;;;;;5016019;28;20040;-62
2023/08/23 07:01:26;;;;;;;3.10;2.60;;;;;;;;;;5016004;28;20032;-62
2023/08/23 07:03:52;;;;;;;2.92;2.13;;;;;;;;;;5031764;28;20033;-62
2023/08/23 07:06:19;;;;;;;3.33;2.20;;;;;;;;;;5015667;28;20072;-61
2023/08/23 07:08:45;;;;;;;3.00;2.20;;;;;;;;;;5015833;28;20025;-62
2023/08/23 07:11:10;;;;;;;2.80;2.13;;;;;;;;;;5015939;28;20029;-61
2023/08/23 07:13:38;;;;;;;3.45;2.22;;;;;;;;;;5016256;28;20041;-61
2023/08/23 07:16:04;;;;;;;3.20;2.28;;;;;;;;;;5015852;28;20025;-62
2023/08/23 07:18:29;;;;;;;3.80;2.33;;;;;;;;;;5015792;28;20029;-61
2023/08/23 07:20:57;;;;;;;2.95;2.10;;;;;;;;;;5019569;28;20029;-64
2023/08/23 07:23:24;;;;;;;3.60;2.20;;;;;;;;;;5019728;28;20030;-61
2023/08/23 07:25:50;;;;;;;3.08;2.35;;;;;;;;;;5019301;28;20112;-61
2023/08/23 07:28:16;;;;;;;2.40;2.20;;;;;;;;;;5019475;28;20017;-61
2023/08/23 07:30:46;;;;;;;3.35;2.40;;;;;;;;;;5019420;28;20473;-62
2023/08/23 07:33:11;;;;;;;3.47;2.20;;;;;;;;;;5019468;28;20036;-62
2023/08/23 07:35:37;;;;;;;3.20;2.13;;;;;;;;;;5019412;28;20030;-63
2023/08/23 07:38:02;;;;;;;2.83;2.38;;;;;;;;;;5019382;28;20060;-62
2023/08/23 07:40:28;;;;;;;3.03;2.20;;;;;;;;;;5019324;28;20029;-62
2023/08/23 07:42:53;;;;;;;2.63;2.05;;;;;;;;;;5019132;28;20075;-62
2023/08/23 07:45:20;;;;;;;2.78;2.38;;;;;;;;;;5019090;28;20029;-61
2023/08/23 07:47:46;;;;;;;3.72;2.40;;;;;;;;;;5018990;28;20026;-61
2023/08/23 07:50:12;;;;;;;3.10;2.33;;;;;;;;;;5017089;28;20036;-64
2023/08/23 07:52:37;;;;;;;2.55;2.28;;;;;;;;;;5018630;28;20116;-61
2023/08/23 07:55:05;;;;;;;3.30;2.53;;;;;;;;;;5018036;28;20053;-61
2023/08/23 07:57:30;;;;;;;3.15;2.35;;;;;;;;;;5018203;28;20025;-61
2023/08/23 07:59:56;;;;;;;3.30;2.60;;;;;;;;;;5018775;28;20040;-61
2023/08/23 08:02:22;;;;;;;3.50;2.45;;;;;;;;;;5017821;28;20120;-63
2023/08/23 08:04:48;;;;;;;3.08;2.25;;;;;;;;;;5018554;28;20026;-61
2023/08/23 08:07:13;;;;;;;3.00;2.65;;;;;;;;;;5018853;28;20022;-61
2023/08/23 08:09:38;;;;;;;5.45;2.70;;;;;;;;;;5018562;28;20024;-61
2023/08/23 08:12:04;;;;;;;3.17;2.55;;;;;;;;;;5034845;28;20025;-60
2023/08/23 08:14:30;;;;;;;3.25;2.60;;;;;;;;;;5018481;28;20055;-61
2023/08/23 08:16:55;;;;;;;4.05;2.80;;;;;;;;;;5019133;28;20491;-61
2023/08/23 08:19:21;;;;;;;2.78;2.58;;;;;;;;;;5017087;28;20452;-61
2023/08/23 08:21:46;;;;;;;3.50;2.58;;;;;;;;;;5017325;28;20040;-62
2023/08/23 08:24:12;;;;;;;2.85;2.53;;;;;;;;;;5017038;28;20071;-61
2023/08/23 08:26:37;;;;;;;4.70;2.75;;;;;;;;;;5017326;28;20075;-61
2023/08/23 08:29:02;;;;;;;2.90;2.58;;;;;;;;;;5033671;28;20602;-61
2023/08/23 08:31:28;;;;;;;3.28;2.70;;;;;;;;;;5015645;28;20032;-61
2023/08/23 08:33:53;;;;;;;3.03;2.70;;;;;;;;;;5018148;28;20056;-61
2023/08/23 08:36:19;;;;;;;3.03;2.60;;;;;;;;;;5018128;28;20362;-61
2023/08/23 08:38:44;;;;;;;3.65;2.90;;;;;;;;;;5018238;28;20053;-61
2023/08/23 08:41:10;;;;;;;3.30;2.75;;;;;;;;;;5018196;28;20026;-61
2023/08/23 08:43:36;;;;;;;3.75;2.85;;;;;;;;;;5017976;28;20030;-61
2023/08/23 08:46:05;;;;;;;3.75;2.55;;;;;;;;;;5034513;28;20037;-61
2023/08/23 08:48:30;;;;;;;4.07;2.47;;;;;;;;;;5018002;28;20367;-61
2023/08/23 08:50:57;;;;;;;3.63;2.60;;;;;;;;;;5018009;28;20032;-61
2023/08/23 08:53:25;;;;;;;3.63;2.85;;;;;;;;;;5017902;28;20063;-61
2023/08/23 08:55:50;;;;;;;3.33;2.60;;;;;;;;;;5017785;28;20032;-62
2023/08/23 08:58:19;;;;;;;5.07;2.80;;;;;;;;;;5017906;28;20030;-61
2023/08/23 09:00:47;;;;;;;2.83;2.50;;;;;;;;;;5018263;28;20041;-61
2023/08/23 09:03:13;;;;;;;4.10;2.75;;;;;;;;;;5017451;28;20034;-62
2023/08/23 09:05:39;;;;;;;3.20;2.40;;;;;;;;;;5017491;28;20033;-62
2023/08/23 09:08:05;;;;;;;3.03;2.58;;;;;;;;;;5017600;28;20364;-61
2023/08/23 09:10:31;;;;;;;4.55;2.70;;;;;;;;;;5017608;28;20028;-61
2023/08/23 09:12:56;;;;;;;2.90;2.50;;;;;;;;;;5017599;28;20037;-61
2023/08/23 09:15:23;;;;;;;3.13;2.42;;;;;;;;;;5017553;28;20075;-61
2023/08/23 09:17:51;;;;;;;3.33;2.70;;;;;;;;;;5017450;28;20406;-61
2023/08/23 09:20:16;;;;;;;2.63;2.42;;;;;;;;;;5017402;28;20040;-61
2023/08/23 09:22:42;;;;;;;3.45;2.53;;;;;;;;;;5017316;28;20025;-61
2023/08/23 09:25:08;;;;;;;2.92;2.60;;;;;;;;;;5033352;28;20087;-61
2023/08/23 09:27:34;;;;;;;2.85;2.50;;;;;;;;;;5033726;28;20017;-61
2023/08/23 09:30:01;;;;;;;2.67;2.28;;;;;;;;;;5017184;28;20033;-61
2023/08/23 09:32:27;;;;;;;2.92;2.50;;;;;;;;;;5033687;28;20033;-61
2023/08/23 09:34:53;;;;;;;2.70;2.40;;;;;;;;;;5033987;28;20041;-61
2023/08/23 09:37:18;;;;;;;2.90;2.58;;;;;;;;;;5017142;28;20026;-62
2023/08/23 09:39:44;;;;;;;3.88;2.78;;;;;;;;;;5017860;28;20337;-61
2023/08/23 09:42:13;;;;;;;2.88;2.55;;;;;;;;;;5033012;28;20026;-61
2023/08/23 09:44:46;;;;;;;3.00;2.63;;;;;;;;;;5016666;28;20037;-61
2023/08/23 09:47:15;;;;;;;2.78;2.45;;;;;;;;;;5065159;28;20033;-61
2023/08/23 09:49:51;;;;;;;3.80;2.70;;;;;;;;;;5034672;28;20017;-62
2023/08/23 09:52:17;;;;;;;3.35;2.60;;;;;;;;;;5033293;28;20136;-61
2023/08/23 09:54:43;;;;;;;2.67;2.42;;;;;;;;;;5016609;28;20104;-61
2023/08/23 09:57:08;;;;;;;3.05;2.40;;;;;;;;;;5016679;28;20053;-61
2023/08/23 09:59:34;;;;;;;3.05;2.55;;;;;;;;;;5016496;28;20028;-61
2023/08/23 10:02:01;;;;;;;3.53;2.42;;;;;;;;;;5016261;28;20025;-61
2023/08/23 10:04:27;;;;;;;3.50;2.75;;;;;;;;;;5032726;28;20049;-61
2023/08/23 10:06:52;;;;;;;2.80;2.50;;;;;;;;;;5016637;28;20460;-63
2023/08/23 10:09:20;;;;;;;3.53;2.40;;;;;;;;;;5016553;28;20036;-62
2023/08/23 10:11:46;;;;;;;2.80;2.50;;;;;;;;;;5017063;28;20061;-61
2023/08/23 10:14:12;;;;;;;2.92;2.63;;;;;;;;;;5017184;28;20021;-61
2023/08/23 10:16:38;;;;;;;3.53;2.70;;;;;;;;;;5016475;28;20485;-61
2023/08/23 10:19:04;;;;;;;4.18;2.50;;;;;;;;;;5032727;28;20038;-62
2023/08/23 10:21:30;;;;;;;3.15;2.67;;;;;;;;;;5016036;28;20376;-62
2023/08/23 10:23:56;;;;;;;2.72;2.42;;;;;;;;;;5016131;28;20025;-62
2023/08/23 10:26:21;;;;;;;4.25;2.72;;;;;;;;;;5016364;28;20021;-61
2023/08/23 10:28:48;;;;;;;2.92;2.30;;;;;;;;;;5032581;28;20080;-61
2023/08/23 10:31:15;;;;;;;2.40;2.20;;;;;;;;;;5032699;28;20059;-61
2023/08/23 10:33:42;;;;;;;3.20;2.42;;;;;;;;;;5016178;28;20075;-62
2023/08/23 10:36:07;;;;;;;3.00;2.17;;;;;;;;;;5016202;28;20033;-62
2023/08/23 10:38:33;;;;;;;3.47;2.25;;;;;;;;;;5016217;28;20025;-62
2023/08/23 10:40:59;;;;;;;2.47;2.20;;;;;;;;;;5016201;28;20025;-62
2023/08/23 10:43:25;;;;;;;3.85;2.40;;;;;;;;;;5015772;28;20068;-62
2023/08/23 10:45:56;;;;;;;3.15;2.33;;;;;;;;;;5016180;28;20059;-62
2023/08/23 10:48:23;;;;;;;3.47;2.30;;;;;;;;;;5016057;28;20026;-62
2023/08/23 10:50:49;;;;;;;3.45;2.22;;;;;;;;;;5015760;28;20380;-62
2023/08/23 10:53:16;;;;;;;3.88;2.10;;;;;;;;;;5016011;28;20024;-62
2023/08/23 10:55:41;;;;;;;2.28;2.03;;;;;;;;;;5018787;28;20071;-62
2023/08/23 10:58:07;;;;;;;3.00;2.28;;;;;;;;;;5020120;28;20021;-62
2023/08/23 11:00:33;;;;;;;2.83;2.22;;;;;;;;;;5020077;28;20026;-62
2023/08/23 11:02:58;;;;;;;2.45;2.10;;;;;;;;;;5019664;28;20037;-61
2023/08/23 11:05:24;;;;;;;2.28;2.05;;;;;;;;;;5017423;28;20065;-62
2023/08/23 11:07:51;;;;;;;2.70;2.15;;;;;;;;;;5021962;28;20033;-61
2023/08/23 11:10:17;;;;;;;3.15;2.00;;;;;;;;;;5033989;28;20021;-62
2023/08/23 11:12:44;;;;;;;3.20;2.65;;;;;;;;;;5001109;28;20396;-62
2023/08/23 11:15:10;;;;;;;2.67;2.03;;;;;;;;;;5035092;28;20067;-61
2023/08/23 11:17:36;;;;;;;2.53;1.90;;;;;;;;;;5019222;28;20029;-63
2023/08/23 11:20:03;;;;;;;2.15;1.70;;;;;;;;;;5035703;28;20112;-62
2023/08/23 11:22:30;;;;;;;2.90;1.95;;;;;;;;;;5037206;28;20024;-62
2023/08/23 11:24:57;;;;;;;2.35;1.85;;;;;;;;;;5035793;28;20483;-61
2023/08/23 11:27:23;;;;;;;2.65;2.05;;;;;;;;;;5003099;28;20036;-61
2023/08/23 11:29:49;;;;;;;3.00;1.92;;;;;;;;;;5018917;28;20445;-62
2023/08/23 11:32:16;;;;;;;2.75;1.88;;;;;;;;;;5019375;28;20064;-62
2023/08/23 11:34:42;;;;;;;2.72;1.70;;;;;;;;;;5019476;28;20025;-61
2023/08/23 11:37:08;;;;;;;2.13;1.90;;;;;;;;;;5019272;28;20513;-62
2023/08/23 11:39:34;;;;;;;3.83;1.88;;;;;;;;;;5019102;28;20479;-61
2023/08/23 11:42:01;;;;;;;2.55;1.90;;;;;;;;;;5019055;28;20029;-62
2023/08/23 11:44:30;;;;;;;2.35;1.60;;;;;;;;;;5019290;28;20029;-61
2023/08/23 11:46:59;;;;;;;2.63;2.00;;;;;;;;;;5002423;28;20388;-63
2023/08/23 11:49:25;;;;;;;2.75;2.08;;;;;;;;;;5019087;28;20037;-61
2023/08/23 11:51:50;;;;;;;2.53;2.05;;;;;;;;;;5003068;28;20029;-61
2023/08/23 11:54:17;;;;;;;2.60;1.90;;;;;;;;;;5019088;28;20032;-61
2023/08/23 11:56:44;;;;;;;2.83;1.80;;;;;;;;;;5019031;28;20017;-62
2023/08/23 11:59:10;;;;;;;2.50;1.90;;;;;;;;;;5018913;28;20079;-61
2023/08/23 12:01:42;;;;;;;2.45;1.80;;;;;;;;;;5035380;28;20043;-61
2023/08/23 12:04:11;;;;;;;3.30;2.20;;;;;;;;;;5036398;28;20068;-61
2023/08/23 12:06:37;;;;;;;2.13;1.70;;;;;;;;;;5018556;28;20029;-61
2023/08/23 12:09:04;;;;;;;2.67;1.80;;;;;;;;;;5035203;28;20064;-61
2023/08/23 12:11:30;;;;;;;2.30;1.90;;;;;;;;;;5018546;28;20057;-61
2023/08/23 12:13:55;;;;;;;1.98;1.75;;;;;;;;;;5018495;28;20036;-62
2023/08/23 12:16:21;;;;;;;2.08;1.70;;;;;;;;;;5017219;28;20021;-61
2023/08/23 12:18:48;;;;;;;2.22;1.77;;;;;;;;;;5033534;28;20025;-60
2023/08/23 12:21:14;;;;;;;1.73;1.60;;;;;;;;;;5018290;28;20067;-61
2023/08/23 12:23:40;;;;;;;2.05;1.70;;;;;;;;;;5018041;28;20022;-61
2023/08/23 12:26:05;;;;;;;3.15;1.75;;;;;;;;;;5018321;28;20032;-61
2023/08/23 12:28:31;;;;;;;1.98;1.50;;;;;;;;;;5018421;28;20372;-61
2023/08/23 12:30:56;;;;;;;2.20;1.83;;;;;;;;;;5018421;28;20053;-61
2023/08/23 12:33:22;;;;;;;1.90;1.70;;;;;;;;;;5002071;28;20499;-61
2023/08/23 12:35:48;;;;;;;2.42;1.80;;;;;;;;;;5018325;28;20025;-61
2023/08/23 12:38:13;;;;;;;2.97;1.70;;;;;;;;;;5017889;28;20061;-64
2023/08/23 12:40:39;;;;;;;1.70;1.50;;;;;;;;;;5017384;28;20022;-61
2023/08/23 12:43:04;;;;;;;2.58;1.70;;;;;;;;;;5017135;28;20061;-62
2023/08/23 12:45:30;;;;;;;2.95;1.77;;;;;;;;;;5016264;28;20025;-61
2023/08/23 12:47:55;;;;;;;2.25;1.80;;;;;;;;;;5016187;28;20353;-63
2023/08/23 12:50:21;;;;;;;2.13;1.92;;;;;;;;;;5017582;28;20463;-62
2023/08/23 12:52:46;;;;;;;2.90;1.75;;;;;;;;;;5017657;28;20357;-62
2023/08/23 12:55:12;;;;;;;2.20;1.60;;;;;;;;;;5017778;28;20030;-63
2023/08/23 12:57:37;;;;;;;2.30;1.80;;;;;;;;;;5017787;28;20037;-62
2023/08/23 13:00:07;;;;;;;2.33;1.88;;;;;;;;;;5017794;28;20025;-62
2023/08/23 13:02:32;;;;;;;3.80;2.00;;;;;;;;;;5017494;28;20029;-61
2023/08/23 13:04:58;;;;;;;2.45;1.80;;;;;;;;;;5017337;28;20041;-62
2023/08/23 13:07:23;;;;;;;2.13;1.60;;;;;;;;;;5017579;28;20060;-62
2023/08/23 13:09:50;;;;;;;2.13;1.80;;;;;;;;;;5016350;28;20025;-62
2023/08/23 13:12:15;;;;;;;2.00;1.65;;;;;;;;;;5033298;28;20049;-61
2023/08/23 13:14:41;;;;;;;2.42;1.83;;;;;;;;;;5017313;28;20067;-64
2023/08/23 13:17:06;;;;;;;3.33;1.80;;;;;;;;;;5016554;28;20029;-62
2023/08/23 13:19:33;;;;;;;2.22;1.70;;;;;;;;;;5016731;28;20066;-63
2023/08/23 13:21:59;;;;;;;2.45;1.80;;;;;;;;;;5033267;28;20025;-62
2023/08/23 13:24:25;;;;;;;2.08;1.67;;;;;;;;;;5016400;28;20407;-63
2023/08/23 13:26:51;;;;;;;1.92;1.52;;;;;;;;;;5016605;28;20449;-61
2023/08/23 13:29:17;;;;;;;2.50;1.70;;;;;;;;;;5033623;28;20036;-63
2023/08/23 13:31:45;;;;;;;2.13;1.80;;;;;;;;;;5017171;28;20026;-61
2023/08/23 13:34:14;;;;;;;2.05;1.60;;;;;;;;;;5017142;28;20082;-64
2023/08/23 13:36:41;;;;;;;2.42;1.60;;;;;;;;;;5017025;28;20036;-61
2023/08/23 13:39:07;;;;;;;2.25;1.70;;;;;;;;;;5032799;28;20044;-61
2023/08/23 13:41:33;;;;;;;2.13;1.80;;;;;;;;;;5049602;28;20034;-62
2023/08/23 13:43:58;;;;;;;2.40;1.88;;;;;;;;;;5016418;28;20039;-63
2023/08/23 13:46:23;;;;;;;2.90;1.80;;;;;;;;;;5016186;28;20047;-61
2023/08/23 13:48:49;;;;;;;2.97;1.77;;;;;;;;;;5015211;28;20076;-65
2023/08/23 13:51:15;;;;;;;2.70;1.52;;;;;;;;;;5002406;28;20421;-63
2023/08/23 13:53:42;;;;;;;2.45;1.70;;;;;;;;;;5016429;28;20029;-62
2023/08/23 13:56:08;;;;;;;1.85;1.38;;;;;;;;;;5015721;28;20033;-62
2023/08/23 13:58:33;;;;;;;4.13;1.90;;;;;;;;;;5016367;28;20148;-62
2023/08/23 14:00:59;;;;;;;2.63;1.73;;;;;;;;;;5016208;28;20037;-62
2023/08/23 14:03:25;;;;;;;2.40;1.50;;;;;;;;;;5017207;28;20037;-62
2023/08/23 14:06:00;;;;;;;2.22;1.55;;;;;;;;;;5017003;28;20490;-62
2023/08/23 14:08:26;;;;;;;2.33;1.83;;;;;;;;;;5032290;28;20052;-62
2023/08/23 14:10:52;;;;;;;2.03;1.50;;;;;;;;;;5016589;28;20060;-62
2023/08/23 14:13:17;;;;;;;1.90;1.55;;;;;;;;;;5016811;28;20073;-62
2023/08/23 14:15:43;;;;;;;3.22;1.88;;;;;;;;;;5000198;28;20413;-62
2023/08/23 14:18:08;;;;;;;2.22;1.63;;;;;;;;;;5033049;28;20380;-63
2023/08/23 14:20:34;;;;;;;3.50;1.67;;;;;;;;;;5016422;28;20030;-62
2023/08/23 14:22:59;;;;;;;2.60;1.60;;;;;;;;;;5015741;28;20033;-62
2023/08/23 14:25:25;;;;;;;2.22;1.75;;;;;;;;;;5016382;28;20059;-62
2023/08/23 14:27:51;;;;;;;2.28;1.70;;;;;;;;;;5016369;28;20029;-62
2023/08/23 14:30:17;;;;;;;2.13;1.55;;;;;;;;;;5016041;28;20040;-62
2023/08/23 14:32:49;;;;;;;2.40;1.60;;;;;;;;;;5015095;28;20025;-62
2023/08/23 14:35:15;;;;;;;2.43;1.70;;;;;;;;;;5016306;28;20038;-63